Time;durP1;ratioP1;P1;durP2;ratioP2;P2;SDS_P1;SDS_P2;PMS_P1;PMS_P2;Temp;Humidity;BMP_temperature;BMP_pressure;BME280_temperature;BME280_humidity;BME280_pressure;Samples;Min_cycle;Max_cycle;Signal;HPM_P1;HPM_P2
2022/11/10 00:00:20;;;;;;;19.30;6.80;;;9.70;99.90;;;;;;4923831;29;20119;-67
2022/11/10 00:02:46;;;;;;;19.85;7.47;;;9.60;99.90;;;;;;4920821;29;20051;-67
2022/11/10 00:05:13;;;;;;;22.27;7.28;;;9.60;99.90;;;;;;4933975;29;20051;-67
2022/11/10 00:07:39;;;;;;;17.73;7.53;;;9.60;99.90;;;;;;4930092;29;20047;-67
2022/11/10 00:10:05;;;;;;;22.58;7.35;;;9.50;99.90;;;;;;4924578;29;20042;-67
2022/11/10 00:12:32;;;;;;;17.15;6.68;;;9.50;99.90;;;;;;4913137;29;20035;-67
2022/11/10 00:17:42;;;;;;;25.10;7.15;;;9.50;99.90;;;;;;4921784;29;20043;-67
2022/11/10 00:20:08;;;;;;;23.00;7.03;;;9.40;99.90;;;;;;4933047;29;20047;-67
2022/11/10 00:22:35;;;;;;;24.27;7.65;;;9.40;99.90;;;;;;4937071;29;20469;-67
2022/11/10 00:25:01;;;;;;;22.60;7.25;;;9.40;99.90;;;;;;4930516;29;20047;-67
2022/11/10 00:27:27;;;;;;;20.27;7.55;;;9.40;99.90;;;;;;4925602;29;20032;-67
2022/11/10 00:29:52;;;;;;;26.67;7.88;;;9.30;99.90;;;;;;4937131;29;20407;-67
2022/11/10 00:32:18;;;;;;;20.00;6.95;;;9.30;99.90;;;;;;4920317;29;20044;-67
2022/11/10 00:34:44;;;;;;;18.98;7.28;;;9.30;99.90;;;;;;4921855;29;20468;-67
2022/11/10 00:37:10;;;;;;;17.88;7.50;;;9.30;99.90;;;;;;4932424;29;20042;-67
2022/11/10 00:39:35;;;;;;;21.35;7.50;;;9.30;99.90;;;;;;4937539;29;20042;-67
2022/11/10 00:42:01;;;;;;;18.98;7.85;;;9.30;99.90;;;;;;4909005;29;20082;-67
2022/11/10 00:44:27;;;;;;;27.85;7.78;;;9.30;99.90;;;;;;4915923;29;20122;-67
2022/11/10 00:46:52;;;;;;;28.98;7.15;;;9.30;99.90;;;;;;4936914;29;20043;-67
2022/11/10 00:49:18;;;;;;;23.05;7.93;;;9.30;99.90;;;;;;4937407;29;20089;-67
2022/11/10 00:51:44;;;;;;;27.40;7.57;;;9.30;99.90;;;;;;4919918;29;20098;-67
2022/11/10 00:54:09;;;;;;;24.55;7.72;;;9.30;99.90;;;;;;4930652;29;20036;-67
2022/11/10 00:56:35;;;;;;;17.55;7.43;;;9.30;99.90;;;;;;4937199;29;20107;-67
2022/11/10 00:59:00;;;;;;;20.60;7.65;;;9.30;99.90;;;;;;4921378;29;20418;-67
2022/11/10 01:01:26;;;;;;;22.52;7.43;;;9.30;99.90;;;;;;4932381;29;20031;-67
2022/11/10 01:03:52;;;;;;;28.65;8.10;;;9.30;99.90;;;;;;4936586;29;20058;-67
2022/11/10 01:06:20;;;;;;;21.67;7.63;;;9.30;99.90;;;;;;4937207;29;20067;-67
2022/11/10 01:08:45;;;;;;;20.17;7.50;;;9.30;99.90;;;;;;4930473;29;20410;-67
2022/11/10 01:11:17;;;;;;;27.70;7.82;;;9.40;99.90;;;;;;4932840;29;20517;-67
2022/11/10 01:13:43;;;;;;;19.02;6.93;;;9.40;99.90;;;;;;4919579;29;20035;-67
2022/11/10 01:16:12;;;;;;;28.75;8.07;;;9.40;99.90;;;;;;4927886;29;20051;-67
2022/11/10 01:18:38;;;;;;;20.77;7.22;;;9.40;99.90;;;;;;4934035;29;20032;-67
2022/11/10 01:21:04;;;;;;;22.50;7.57;;;9.40;99.90;;;;;;4951095;29;20039;-67
2022/11/10 01:23:30;;;;;;;23.52;7.63;;;9.30;99.90;;;;;;4928665;29;20127;-67
2022/11/10 01:25:58;;;;;;;22.58;7.22;;;9.30;99.90;;;;;;4930028;29;20118;-67
2022/11/10 01:28:24;;;;;;;24.50;7.38;;;9.30;99.90;;;;;;4936476;29;20043;-67
2022/11/10 01:30:56;;;;;;;22.67;7.55;;;9.30;99.90;;;;;;4932842;29;20530;-67
2022/11/10 01:33:22;;;;;;;27.25;7.75;;;9.30;99.90;;;;;;4902319;29;20040;-67
2022/11/10 01:35:47;;;;;;;26.42;8.05;;;9.30;99.90;;;;;;4932581;29;20039;-67
2022/11/10 01:38:13;;;;;;;18.75;7.38;;;9.30;99.90;;;;;;4936441;29;20541;-68
2022/11/10 01:40:38;;;;;;;25.15;8.35;;;9.30;99.90;;;;;;4933051;29;20407;-66
2022/11/10 01:43:04;;;;;;;21.83;7.97;;;9.20;99.90;;;;;;4918652;29;20076;-66
2022/11/10 01:45:45;;;;;;;22.38;6.93;;;9.20;99.90;;;;;;4933721;29;20505;-66
2022/11/10 01:48:17;;;;;;;23.80;7.17;;;9.20;99.90;;;;;;4934015;29;20079;-66
2022/11/10 01:50:44;;;;;;;22.45;6.97;;;9.20;99.90;;;;;;4931790;29;20288;-66
2022/11/10 01:53:16;;;;;;;26.15;7.80;;;9.20;99.90;;;;;;4935498;29;20040;-66
2022/11/10 01:55:43;;;;;;;23.38;6.45;;;9.20;99.90;;;;;;4936056;29;20114;-66
2022/11/10 01:58:12;;;;;;;19.15;7.65;;;9.20;99.90;;;;;;4944488;28;20103;-66
2022/11/10 02:00:38;;;;;;;20.48;7.53;;;9.20;99.90;;;;;;4919892;29;20036;-66
2022/11/10 02:03:27;;;;;;;18.73;6.93;;;9.30;99.90;;;;;;4935707;29;20402;-66
2022/11/10 02:05:54;;;;;;;20.10;7.45;;;9.30;99.90;;;;;;4921373;29;20040;-66
2022/11/10 02:08:21;;;;;;;18.20;6.95;;;9.30;99.90;;;;;;4930683;29;20531;-66
2022/11/10 02:10:46;;;;;;;24.75;7.63;;;9.30;99.90;;;;;;4935331;29;20032;-66
2022/11/10 02:13:12;;;;;;;18.67;7.13;;;9.20;99.90;;;;;;4915831;29;20509;-66
2022/11/10 02:15:38;;;;;;;20.45;8.00;;;9.20;99.90;;;;;;4930384;29;20127;-66
2022/11/10 02:18:04;;;;;;;20.10;6.80;;;9.20;99.90;;;;;;4924942;29;20047;-66
2022/11/10 02:20:30;;;;;;;21.80;7.60;;;9.20;99.90;;;;;;4918751;29;20040;-66
2022/11/10 02:22:55;;;;;;;19.85;7.25;;;9.30;99.90;;;;;;4927272;29;20079;-66
2022/11/10 02:25:24;;;;;;;21.98;7.68;;;9.30;99.90;;;;;;4924864;29;20390;-66
2022/11/10 02:27:49;;;;;;;16.52;7.10;;;9.30;99.90;;;;;;4935179;29;20047;-66
2022/11/10 02:30:16;;;;;;;26.25;7.25;;;9.40;99.90;;;;;;4927078;29;20053;-66
2022/11/10 02:32:42;;;;;;;21.67;7.38;;;9.40;99.90;;;;;;4916380;29;20120;-66
2022/11/10 02:35:07;;;;;;;22.95;8.85;;;9.40;99.90;;;;;;4935256;29;20059;-66
2022/11/10 02:37:33;;;;;;;17.30;8.00;;;9.40;99.90;;;;;;4935014;29;20048;-66
2022/11/10 02:39:59;;;;;;;26.95;8.02;;;9.40;99.90;;;;;;4927837;29;20031;-66
2022/11/10 02:42:24;;;;;;;23.33;8.55;;;9.40;99.90;;;;;;4932594;29;20098;-66
2022/11/10 02:44:50;;;;;;;24.17;9.15;;;9.40;99.90;;;;;;4931982;29;20054;-66
2022/11/10 02:47:16;;;;;;;22.15;8.50;;;9.40;99.90;;;;;;4935207;29;20047;-66
2022/11/10 02:49:43;;;;;;;25.45;9.25;;;9.40;99.90;;;;;;4929983;29;20036;-66
2022/11/10 02:52:10;;;;;;;24.38;8.75;;;9.40;99.90;;;;;;4934156;29;20040;-66
2022/11/10 02:54:35;;;;;;;27.48;11.10;;;9.50;99.90;;;;;;4935566;29;20079;-66
2022/11/10 02:57:01;;;;;;;28.95;10.93;;;9.50;99.90;;;;;;4924689;29;20070;-66
2022/11/10 02:59:27;;;;;;;29.30;10.63;;;9.50;99.90;;;;;;4932482;29;20042;-66
2022/11/10 03:01:53;;;;;;;31.05;10.80;;;9.50;99.90;;;;;;4934573;29;20036;-66
2022/11/10 03:04:19;;;;;;;27.75;11.85;;;9.50;99.90;;;;;;4931172;29;20070;-66
2022/11/10 03:06:45;;;;;;;25.67;10.77;;;9.50;99.90;;;;;;4926409;29;20131;-66
2022/11/10 03:09:10;;;;;;;35.95;12.10;;;9.50;99.90;;;;;;4934511;29;20098;-66
2022/11/10 03:11:36;;;;;;;29.05;11.98;;;9.60;99.90;;;;;;4931454;29;20067;-66
2022/11/10 03:14:01;;;;;;;31.75;12.25;;;9.50;99.90;;;;;;4927464;29;20639;-66
2022/11/10 03:16:27;;;;;;;33.85;12.15;;;9.60;99.90;;;;;;4934446;29;20040;-66
2022/11/10 03:18:52;;;;;;;29.23;11.82;;;9.60;99.90;;;;;;4934611;29;20036;-66
2022/11/10 03:21:18;;;;;;;29.05;11.60;;;9.60;99.90;;;;;;4920743;29;20494;-66
2022/11/10 03:23:44;;;;;;;43.92;12.77;;;9.70;99.90;;;;;;4933948;29;20039;-66
2022/11/10 03:26:09;;;;;;;34.63;13.43;;;9.70;99.90;;;;;;4933514;29;20090;-66
2022/11/10 03:28:35;;;;;;;42.97;13.73;;;9.70;99.90;;;;;;4922599;29;20067;-66
2022/11/10 03:31:00;;;;;;;31.50;11.98;;;9.70;99.90;;;;;;4933324;29;20432;-66
2022/11/10 03:33:26;;;;;;;32.97;11.95;;;9.60;99.90;;;;;;4934023;29;20398;-66
2022/11/10 03:35:51;;;;;;;34.35;11.40;;;9.60;99.90;;;;;;4934232;29;20178;-66
2022/11/10 03:38:17;;;;;;;27.05;11.02;;;9.60;99.90;;;;;;4924004;29;20039;-66
2022/11/10 03:40:42;;;;;;;32.80;12.38;;;9.50;99.90;;;;;;4933224;29;20058;-66
2022/11/10 03:43:10;;;;;;;32.40;11.85;;;9.60;99.90;;;;;;4934312;29;20051;-66
2022/11/10 03:45:36;;;;;;;29.60;11.70;;;9.60;99.90;;;;;;4911531;29;20747;-66
2022/11/10 03:48:02;;;;;;;32.05;11.93;;;9.60;99.90;;;;;;4924949;29;20038;-67
2022/11/10 03:50:27;;;;;;;34.13;11.95;;;9.60;99.90;;;;;;4932966;29;20052;-66
2022/11/10 03:52:53;;;;;;;39.05;13.25;;;9.60;99.90;;;;;;4934188;29;20055;-66
2022/11/10 03:55:18;;;;;;;35.38;11.05;;;9.60;99.90;;;;;;4926397;29;20051;-66
2022/11/10 03:57:44;;;;;;;40.55;12.30;;;9.60;99.90;;;;;;4918429;29;20558;-66
2022/11/10 04:00:12;;;;;;;31.63;11.57;;;9.50;99.90;;;;;;4933751;29;20040;-66
2022/11/10 04:02:38;;;;;;;31.90;12.77;;;9.50;99.90;;;;;;4923913;29;20091;-66
2022/11/10 04:10:39;;;;;;;40.33;12.30;;;9.50;99.90;;;;;;4923291;29;20055;-66
2022/11/10 04:15:50;;;;;;;34.83;13.82;;;9.50;99.90;;;;;;4933091;29;20054;-66
2022/11/10 04:18:28;;;;;;;37.25;14.60;;;9.50;99.90;;;;;;4914600;29;20404;-67
2022/11/10 04:21:01;;;;;;;38.90;15.10;;;9.50;99.90;;;;;;4924568;29;20060;-66
2022/11/10 04:23:30;;;;;;;37.72;14.30;;;9.60;99.90;;;;;;4933240;29;20271;-66
2022/11/10 04:26:27;;;;;;;46.15;17.30;;;9.50;99.90;;;;;;4933491;29;20059;-66
2022/11/10 04:29:00;;;;;;;41.17;17.13;;;9.50;99.90;;;;;;4917365;29;20520;-66
2022/11/10 04:31:29;;;;;;;40.17;14.35;;;9.60;99.90;;;;;;4922949;29;20099;-66
2022/11/10 04:33:54;;;;;;;46.03;16.35;;;9.50;99.90;;;;;;4933298;29;20040;-66
2022/11/10 04:36:23;;;;;;;43.03;15.10;;;9.50;99.90;;;;;;4922058;29;20679;-66
2022/11/10 04:38:49;;;;;;;37.50;16.77;;;9.50;99.90;;;;;;4929042;29;20038;-67
2022/11/10 04:41:15;;;;;;;48.42;16.73;;;9.50;99.90;;;;;;4933438;29;20043;-66
2022/11/10 04:43:41;;;;;;;39.72;16.73;;;9.50;99.90;;;;;;4933794;29;20048;-65
2022/11/10 04:46:18;;;;;;;39.50;15.60;;;9.50;99.90;;;;;;4909916;29;20040;-65
2022/11/10 04:48:43;;;;;;;42.63;17.92;;;9.60;99.90;;;;;;4931075;29;20044;-65
2022/11/10 04:51:10;;;;;;;46.00;16.00;;;9.60;99.90;;;;;;4932596;29;20047;-66
2022/11/10 04:53:36;;;;;;;41.22;17.60;;;9.70;99.90;;;;;;4921817;29;20035;-65
2022/11/10 04:56:01;;;;;;;45.30;18.58;;;9.70;99.90;;;;;;4940728;29;20098;-65
2022/11/10 04:58:27;;;;;;;48.55;19.35;;;9.70;99.90;;;;;;4933644;29;20077;-67
2022/11/10 05:00:53;;;;;;;46.00;19.35;;;9.80;99.90;;;;;;4923160;29;20040;-65
2022/11/10 05:03:18;;;;;;;53.28;18.38;;;9.80;99.90;;;;;;4940346;28;20447;-65
2022/11/10 05:05:44;;;;;;;46.72;18.58;;;9.70;99.90;;;;;;4915798;29;20043;-66
2022/11/10 05:08:09;;;;;;;52.00;20.00;;;9.80;99.90;;;;;;4926516;29;20529;-68
2022/11/10 05:10:37;;;;;;;48.28;18.67;;;9.80;99.90;;;;;;4922304;29;20058;-65
2022/11/10 05:13:04;;;;;;;43.38;18.92;;;9.80;99.90;;;;;;4936247;29;20174;-66
2022/11/10 05:15:31;;;;;;;43.22;17.77;;;9.80;99.90;;;;;;4935757;29;20048;-66
2022/11/10 05:17:57;;;;;;;40.17;18.15;;;9.80;99.90;;;;;;4936489;29;20040;-65
2022/11/10 05:20:24;;;;;;;44.80;17.67;;;9.80;99.90;;;;;;4925666;29;20039;-65
2022/11/10 05:25:38;;;;;;;45.97;17.17;;;9.80;99.90;;;;;;4914074;29;20051;-65
2022/11/10 05:28:05;;;;;;;48.45;17.85;;;9.80;99.90;;;;;;4936159;29;20433;-67
2022/11/10 05:30:31;;;;;;;46.35;18.33;;;9.70;99.90;;;;;;4922039;29;20050;-66
2022/11/10 05:32:57;;;;;;;41.90;17.42;;;9.80;99.90;;;;;;4936462;29;20035;-66
2022/11/10 05:35:23;;;;;;;51.42;19.10;;;9.70;99.90;;;;;;4907400;29;20490;-66
2022/11/10 05:37:49;;;;;;;46.75;17.50;;;9.80;99.90;;;;;;4935909;29;20044;-66
2022/11/10 05:40:15;;;;;;;43.67;16.70;;;9.80;99.90;;;;;;4936795;29;20042;-66
2022/11/10 05:42:48;;;;;;;39.03;17.20;;;9.70;99.90;;;;;;4911548;29;20048;-67
2022/11/10 05:45:14;;;;;;;42.40;17.00;;;9.80;99.90;;;;;;4922097;29;20100;-67
2022/11/10 05:47:40;;;;;;;41.95;18.23;;;9.80;99.90;;;;;;4935146;29;20048;-65
2022/11/10 05:50:07;;;;;;;44.08;16.40;;;9.80;99.90;;;;;;4936029;29;20046;-66
2022/11/10 05:52:33;;;;;;;40.20;16.65;;;9.80;99.90;;;;;;4925584;29;20039;-67
2022/11/10 05:55:00;;;;;;;47.60;18.13;;;9.80;99.90;;;;;;4916156;29;20463;-66
2022/11/10 05:57:26;;;;;;;43.35;18.67;;;9.80;99.90;;;;;;4925640;29;20495;-66
2022/11/10 05:59:51;;;;;;;47.33;17.60;;;9.80;99.90;;;;;;4933126;29;20111;-66
2022/11/10 06:02:17;;;;;;;46.60;17.15;;;9.80;99.90;;;;;;4941596;29;20031;-67
2022/11/10 06:04:42;;;;;;;42.00;17.35;;;9.80;99.90;;;;;;4925139;29;20055;-65
2022/11/10 06:07:08;;;;;;;43.97;17.63;;;9.90;99.90;;;;;;4926178;29;20036;-66
2022/11/10 06:09:34;;;;;;;42.95;16.25;;;9.90;99.90;;;;;;4923004;29;20036;-66
2022/11/10 06:12:02;;;;;;;35.03;16.40;;;10.00;99.90;;;;;;4939934;29;20032;-67
2022/11/10 06:14:27;;;;;;;38.42;16.40;;;9.90;99.90;;;;;;4943063;29;20051;-66
2022/11/10 06:16:53;;;;;;;38.08;15.00;;;9.90;99.90;;;;;;4911414;29;20035;-65
2022/11/10 06:19:18;;;;;;;37.63;15.63;;;10.00;99.90;;;;;;4946058;23;20050;-67
2022/11/10 06:21:44;;;;;;;38.08;15.65;;;10.00;99.90;;;;;;4985382;28;20039;-67
2022/11/10 06:24:10;;;;;;;40.75;15.55;;;10.00;99.90;;;;;;4992345;28;20034;-67
2022/11/10 06:26:35;;;;;;;35.00;15.50;;;9.90;99.90;;;;;;4992799;28;20068;-67
2022/11/10 06:29:01;;;;;;;36.50;14.63;;;10.00;99.90;;;;;;4975509;28;20039;-68
2022/11/10 06:31:27;;;;;;;33.60;14.60;;;10.00;99.90;;;;;;4969316;28;20042;-67
2022/11/10 06:33:54;;;;;;;36.67;14.38;;;10.00;99.90;;;;;;4967783;28;20042;-68
2022/11/10 06:36:20;;;;;;;36.90;15.60;;;9.90;99.90;;;;;;4973829;28;20070;-67
2022/11/10 06:38:46;;;;;;;37.97;15.20;;;9.90;99.90;;;;;;4974093;28;20043;-67
2022/11/10 06:41:11;;;;;;;37.33;14.02;;;9.90;99.90;;;;;;4967488;28;20038;-68
2022/11/10 06:43:37;;;;;;;38.70;15.10;;;9.90;99.90;;;;;;4973601;28;20038;-68
2022/11/10 06:46:03;;;;;;;30.83;15.00;;;9.90;99.90;;;;;;4973881;28;20085;-67
2022/11/10 06:48:28;;;;;;;35.80;13.80;;;9.90;99.90;;;;;;4969374;28;20047;-68
2022/11/10 06:50:54;;;;;;;29.98;14.40;;;9.90;99.90;;;;;;4962235;28;20170;-66
2022/11/10 06:53:19;;;;;;;39.17;14.93;;;9.80;99.90;;;;;;4973376;28;20070;-66
2022/11/10 06:55:45;;;;;;;38.13;14.95;;;9.90;99.90;;;;;;4971166;28;20140;-66
2022/11/10 06:58:11;;;;;;;37.22;15.18;;;9.80;99.90;;;;;;4957029;28;20046;-66
2022/11/10 07:00:36;;;;;;;36.97;14.88;;;9.90;99.90;;;;;;4965179;28;20125;-67
2022/11/10 07:03:08;;;;;;;40.00;15.27;;;9.80;99.90;;;;;;4973609;28;20039;-67
2022/11/10 07:05:35;;;;;;;38.83;16.73;;;9.80;99.90;;;;;;4963257;28;20520;-67
2022/11/10 07:08:09;;;;;;;35.28;15.07;;;9.80;99.90;;;;;;4967556;28;20031;-69
2022/11/10 07:10:35;;;;;;;31.85;15.15;;;9.80;99.90;;;;;;4972711;28;20047;-69
2022/11/10 07:13:02;;;;;;;39.50;14.18;;;9.80;99.90;;;;;;4972212;28;20053;-69
2022/11/10 07:15:29;;;;;;;39.92;15.63;;;9.80;99.90;;;;;;4962650;28;20091;-69
2022/11/10 07:17:55;;;;;;;41.97;16.17;;;9.80;99.90;;;;;;4968023;28;20031;-69
2022/11/10 07:20:20;;;;;;;39.55;16.05;;;9.80;99.90;;;;;;4973136;28;20035;-69
2022/11/10 07:22:46;;;;;;;38.30;13.82;;;9.80;99.90;;;;;;4958938;28;20039;-69
2022/11/10 07:25:11;;;;;;;42.33;16.98;;;9.80;99.90;;;;;;4960798;28;20046;-69
2022/11/10 07:27:37;;;;;;;45.05;16.23;;;9.90;99.90;;;;;;4973076;28;20523;-69
2022/11/10 07:30:04;;;;;;;38.92;14.75;;;10.00;99.90;;;;;;4973249;28;20053;-69
2022/11/10 07:32:30;;;;;;;36.08;14.35;;;10.00;99.90;;;;;;4968939;28;20575;-69
2022/11/10 07:34:55;;;;;;;38.50;15.93;;;10.10;99.90;;;;;;4972228;28;20529;-69
2022/11/10 07:37:21;;;;;;;38.55;16.92;;;10.20;99.90;;;;;;4971605;28;20038;-69
2022/11/10 07:39:47;;;;;;;40.80;15.73;;;10.20;99.90;;;;;;4960769;28;20081;-69
2022/11/10 07:42:12;;;;;;;39.20;15.82;;;10.30;99.90;;;;;;4970334;28;20039;-69
2022/11/10 07:44:38;;;;;;;36.63;15.23;;;10.30;99.90;;;;;;4971687;28;20046;-69
2022/11/10 07:47:03;;;;;;;35.03;15.55;;;10.40;99.90;;;;;;4973007;28;20047;-69
2022/11/10 07:49:29;;;;;;;38.33;15.98;;;10.40;99.90;;;;;;4960076;28;20035;-69
2022/11/10 07:51:54;;;;;;;37.97;16.27;;;10.40;99.90;;;;;;4966038;28;20031;-69
2022/11/10 07:54:20;;;;;;;42.78;15.30;;;10.40;99.90;;;;;;4972599;28;20105;-69
2022/11/10 07:56:46;;;;;;;34.50;15.43;;;10.40;99.90;;;;;;4959343;28;20105;-69
2022/11/10 07:59:11;;;;;;;35.75;15.93;;;10.40;99.90;;;;;;4967669;28;20401;-69
2022/11/10 08:01:37;;;;;;;38.08;15.45;;;10.40;99.90;;;;;;4971205;28;20039;-69
2022/11/10 08:04:03;;;;;;;35.53;15.05;;;10.40;99.90;;;;;;4967833;28;20051;-69
2022/11/10 08:06:29;;;;;;;39.20;16.15;;;10.40;99.90;;;;;;4956179;28;20043;-69
2022/11/10 08:08:55;;;;;;;36.75;16.15;;;10.40;99.90;;;;;;4960806;28;20047;-69
2022/11/10 08:11:20;;;;;;;36.40;15.85;;;10.40;99.90;;;;;;4966521;28;20045;-69
2022/11/10 08:13:46;;;;;;;32.85;15.52;;;10.40;99.90;;;;;;4957601;28;20055;-69
2022/11/10 08:16:11;;;;;;;36.45;15.18;;;10.40;99.90;;;;;;4965926;28;20123;-69
2022/11/10 08:18:37;;;;;;;34.30;13.35;;;10.40;99.90;;;;;;4964793;28;20035;-69
2022/11/10 08:21:03;;;;;;;32.45;14.80;;;10.50;99.90;;;;;;4968580;28;20178;-69
2022/11/10 08:23:29;;;;;;;33.90;14.95;;;10.40;99.90;;;;;;4975649;28;20046;-68
2022/11/10 08:25:59;;;;;;;33.63;14.93;;;10.40;99.90;;;;;;4974959;28;20126;-68
2022/11/10 08:28:26;;;;;;;29.85;14.07;;;10.40;99.90;;;;;;4962406;28;20051;-68
2022/11/10 08:30:52;;;;;;;33.15;13.70;;;10.50;99.90;;;;;;4966605;28;20121;-69
2022/11/10 08:33:20;;;;;;;31.20;14.02;;;10.50;99.90;;;;;;4977484;28;20502;-70
2022/11/10 08:35:48;;;;;;;25.35;13.90;;;10.60;99.90;;;;;;4975748;28;20445;-68
2022/11/10 08:38:16;;;;;;;27.95;12.45;;;10.70;99.90;;;;;;4966463;28;20046;-68
2022/11/10 08:40:42;;;;;;;27.40;13.57;;;10.90;99.90;;;;;;4967335;28;20074;-68
2022/11/10 08:43:09;;;;;;;35.35;14.32;;;11.00;99.90;;;;;;4980057;28;20082;-69
2022/11/10 08:45:35;;;;;;;29.10;13.05;;;11.20;99.90;;;;;;4970484;28;20066;-70
2022/11/10 08:48:07;;;;;;;29.17;12.35;;;11.30;99.90;;;;;;4970737;28;20049;-69
2022/11/10 08:50:34;;;;;;;30.17;12.82;;;11.40;99.90;;;;;;4979821;28;20034;-70
2022/11/10 08:53:01;;;;;;;27.77;11.40;;;11.50;99.90;;;;;;4968730;28;20046;-69
2022/11/10 08:55:27;;;;;;;22.77;11.23;;;11.50;99.90;;;;;;4971248;28;20494;-70
2022/11/10 08:58:00;;;;;;;21.45;9.77;;;11.60;99.90;;;;;;4980963;28;20071;-70
2022/11/10 09:00:27;;;;;;;28.42;9.82;;;11.60;99.90;;;;;;4969597;28;20036;-69
2022/11/10 09:02:54;;;;;;;22.95;10.70;;;11.60;99.90;;;;;;4965719;28;20122;-69
2022/11/10 09:05:21;;;;;;;24.02;9.43;;;11.60;99.90;;;;;;4974634;28;20048;-69
2022/11/10 09:07:47;;;;;;;23.35;9.52;;;11.60;99.90;;;;;;4979783;28;20548;-69
2022/11/10 09:10:13;;;;;;;22.75;9.38;;;11.60;99.90;;;;;;4973837;28;20049;-68
2022/11/10 09:12:40;;;;;;;25.17;9.10;;;11.60;99.90;;;;;;4967516;28;20082;-67
2022/11/10 09:15:08;;;;;;;20.60;9.30;;;11.70;99.90;;;;;;4974526;28;20042;-67
2022/11/10 09:17:35;;;;;;;23.23;8.85;;;11.70;99.90;;;;;;4969949;28;20043;-67
2022/11/10 09:20:00;;;;;;;22.27;7.72;;;11.80;99.90;;;;;;4960851;28;20038;-69
2022/11/10 09:22:26;;;;;;;26.20;8.77;;;11.90;99.90;;;;;;4971197;28;20030;-67
2022/11/10 09:24:52;;;;;;;36.90;9.05;;;11.90;99.90;;;;;;4972905;28;20043;-67
2022/11/10 09:27:18;;;;;;;26.23;8.55;;;12.00;99.90;;;;;;4970491;28;20045;-68
2022/11/10 09:29:43;;;;;;;26.95;7.88;;;12.10;99.90;;;;;;4974468;28;20058;-68
2022/11/10 09:32:09;;;;;;;25.55;8.57;;;12.10;99.90;;;;;;4974425;28;20494;-69
2022/11/10 09:34:34;;;;;;;26.48;7.47;;;12.20;99.90;;;;;;4972514;28;20089;-67
2022/11/10 09:37:00;;;;;;;22.33;7.53;;;12.30;99.90;;;;;;4961581;28;20082;-68
2022/11/10 09:39:25;;;;;;;20.20;7.25;;;12.30;99.90;;;;;;4970316;28;20073;-67
2022/11/10 09:41:52;;;;;;;19.17;6.28;;;12.40;99.90;;;;;;4974803;28;20054;-70
2022/11/10 09:44:26;;;;;;;24.65;6.50;;;12.50;99.90;;;;;;4969342;28;20049;-69
2022/11/10 09:47:14;;;;;;;18.38;6.63;;;12.50;99.90;;;;;;4963289;28;20150;-69
2022/11/10 09:49:54;;;;;;;19.67;6.15;;;12.60;99.90;;;;;;4965329;28;20077;-69
2022/11/10 09:52:22;;;;;;;22.95;6.30;;;12.60;99.90;;;;;;4969140;28;20039;-69
2022/11/10 09:54:58;;;;;;;17.40;7.00;;;12.70;99.90;;;;;;4957536;28;20101;-68
2022/11/10 09:57:25;;;;;;;16.77;5.97;;;12.80;99.90;;;;;;4969716;28;20043;-68
2022/11/10 09:59:51;;;;;;;19.60;5.70;;;12.90;99.90;;;;;;4973996;28;20042;-68
2022/11/10 10:02:33;;;;;;;20.88;6.05;;;12.90;99.90;;;;;;4966635;28;20485;-67
2022/11/10 10:05:29;;;;;;;20.63;6.07;;;13.00;99.90;;;;;;4966482;28;20043;-67
2022/11/10 10:08:22;;;;;;;15.70;5.80;;;13.00;99.90;;;;;;4968510;28;20046;-67
2022/11/10 10:11:17;;;;;;;16.60;5.35;;;13.00;99.90;;;;;;4963544;28;20125;-68
2022/11/10 10:14:11;;;;;;;27.05;7.00;;;13.10;99.90;;;;;;4966677;28;20034;-68
2022/11/10 10:16:46;;;;;;;15.90;5.20;;;13.20;99.90;;;;;;4972761;28;20050;-66
2022/11/10 10:19:42;;;;;;;13.80;4.85;;;13.40;99.90;;;;;;4968364;28;20041;-70
2022/11/10 10:22:26;;;;;;;16.80;5.53;;;13.40;99.90;;;;;;4966836;28;20050;-66
2022/11/10 10:24:55;;;;;;;20.02;5.57;;;13.40;99.90;;;;;;4971537;28;20485;-71
2022/11/10 10:27:25;;;;;;;14.88;5.82;;;13.40;99.90;;;;;;4959797;28;20062;-68
2022/11/10 10:29:51;;;;;;;13.73;5.50;;;13.40;99.90;;;;;;4971783;28;20081;-69
2022/11/10 10:32:18;;;;;;;19.58;5.75;;;13.50;99.90;;;;;;4972681;28;20034;-69
2022/11/10 10:34:45;;;;;;;19.75;5.63;;;13.60;99.90;;;;;;4966769;28;20043;-68
2022/11/10 10:37:41;;;;;;;17.08;5.05;;;13.70;99.90;;;;;;4973202;28;20122;-70
2022/11/10 10:40:19;;;;;;;17.52;6.05;;;13.80;99.90;;;;;;4965508;28;20122;-68
2022/11/10 10:42:45;;;;;;;17.35;5.80;;;13.80;99.90;;;;;;4969145;28;20074;-69
2022/11/10 10:45:25;;;;;;;17.67;5.75;;;13.80;99.90;;;;;;4972251;28;20747;-68
2022/11/10 10:47:53;;;;;;;23.30;5.82;;;13.70;99.90;;;;;;4972522;28;20034;-69
2022/11/10 10:50:22;;;;;;;22.45;7.35;;;13.60;99.90;;;;;;4973560;28;20046;-68
2022/11/10 10:53:06;;;;;;;15.82;6.10;;;13.60;99.90;;;;;;4963713;28;20051;-69
2022/11/10 10:55:33;;;;;;;16.13;5.00;;;13.70;99.90;;;;;;4969802;28;20046;-72
2022/11/10 10:58:02;;;;;;;16.50;6.13;;;13.70;99.90;;;;;;4973740;28;20085;-68
2022/11/10 11:00:28;;;;;;;20.90;5.25;;;13.90;99.90;;;;;;4959030;28;20037;-69
2022/11/10 11:03:25;;;;;;;16.65;6.72;;;14.00;99.90;;;;;;4971392;28;20421;-68
2022/11/10 11:06:05;;;;;;;20.05;6.25;;;13.90;99.90;;;;;;4969147;28;20043;-68
2022/11/10 11:08:31;;;;;;;21.25;6.18;;;14.00;99.90;;;;;;4971286;28;20057;-69
2022/11/10 11:11:06;;;;;;;19.55;5.88;;;14.00;99.90;;;;;;4964867;28;20042;-69
2022/11/10 11:13:32;;;;;;;22.70;6.40;;;14.10;99.90;;;;;;4973633;28;20089;-69
2022/11/10 11:16:07;;;;;;;19.92;5.22;;;14.10;99.90;;;;;;4965496;28;20509;-69
2022/11/10 11:18:37;;;;;;;16.13;6.00;;;14.20;99.90;;;;;;4955578;28;20975;-68
2022/11/10 11:21:20;;;;;;;16.75;5.10;;;14.20;99.90;;;;;;4958201;28;20038;-68
2022/11/10 11:24:08;;;;;;;14.63;5.22;;;14.20;99.90;;;;;;4971387;28;20060;-66
2022/11/10 11:26:58;;;;;;;17.77;5.30;;;14.10;99.90;;;;;;4973259;28;20049;-66
2022/11/10 11:29:40;;;;;;;16.83;5.20;;;14.00;99.90;;;;;;4967593;28;20042;-67
2022/11/10 11:32:26;;;;;;;13.63;4.95;;;14.00;99.90;;;;;;4954175;28;20039;-67
2022/11/10 11:35:21;;;;;;;19.67;4.80;;;14.00;99.90;;;;;;4964144;28;21464;-67
2022/11/10 11:38:13;;;;;;;16.38;4.45;;;14.00;99.90;;;;;;4963202;28;20110;-68
2022/11/10 11:40:46;;;;;;;18.55;4.43;;;13.90;99.90;;;;;;4963146;28;20047;-69
2022/11/10 11:43:35;;;;;;;14.63;4.05;;;13.90;99.90;;;;;;4966010;28;20071;-67
2022/11/10 11:46:06;;;;;;;19.83;4.97;;;14.00;99.90;;;;;;4952567;29;20086;-67
2022/11/10 11:48:45;;;;;;;23.92;5.03;;;14.20;99.90;;;;;;4957979;28;20042;-67
2022/11/10 11:51:39;;;;;;;18.85;4.70;;;14.20;99.90;;;;;;4962790;28;20258;-68
2022/11/10 11:54:18;;;;;;;24.50;4.82;;;14.30;99.90;;;;;;4966076;28;20034;-67
2022/11/10 11:56:46;;;;;;;15.82;4.18;;;14.40;99.90;;;;;;4971649;28;20078;-68
2022/11/10 11:59:19;;;;;;;18.65;4.10;;;14.40;99.90;;;;;;4972973;28;20039;-69
2022/11/10 12:02:12;;;;;;;16.30;4.45;;;14.40;99.90;;;;;;4960914;28;20508;-69
2022/11/10 12:04:44;;;;;;;17.63;4.25;;;14.50;99.90;;;;;;4972436;28;20115;-69
2022/11/10 12:07:39;;;;;;;19.52;4.32;;;14.50;99.90;;;;;;4956888;28;20038;-69
2022/11/10 12:10:51;;;;;;;20.92;4.20;;;14.60;99.90;;;;;;4959494;28;20054;-69
2022/11/10 12:13:57;;;;;;;20.00;4.35;;;14.70;99.90;;;;;;4972824;28;20096;-68
2022/11/10 12:16:28;;;;;;;15.60;3.92;;;14.70;99.90;;;;;;4956377;28;20052;-66
2022/11/10 12:19:27;;;;;;;18.27;3.90;;;14.70;99.90;;;;;;4968412;28;20049;-67
2022/11/10 12:22:11;;;;;;;14.65;3.65;;;14.70;99.90;;;;;;4970966;28;20065;-67
2022/11/10 12:24:47;;;;;;;17.88;4.22;;;14.70;99.90;;;;;;4958111;28;20452;-67
2022/11/10 12:27:42;;;;;;;18.42;4.00;;;14.70;99.90;;;;;;4975780;28;20042;-67
2022/11/10 12:30:13;;;;;;;18.15;4.35;;;14.70;99.90;;;;;;4967822;28;20043;-67
2022/11/10 12:32:42;;;;;;;21.45;4.30;;;14.70;99.90;;;;;;4973082;28;20061;-67
2022/11/10 12:35:22;;;;;;;21.08;4.05;;;14.70;99.90;;;;;;4972080;28;20043;-67
2022/11/10 12:37:57;;;;;;;16.50;3.63;;;14.60;99.90;;;;;;4971640;28;20397;-69
2022/11/10 12:40:37;;;;;;;14.77;3.70;;;14.60;99.90;;;;;;4954966;28;20035;-68
2022/11/10 12:43:29;;;;;;;15.82;3.83;;;14.70;99.90;;;;;;4967530;28;20035;-68
2022/11/10 12:46:03;;;;;;;18.38;4.20;;;14.70;99.90;;;;;;4975360;28;20042;-69
2022/11/10 12:48:41;;;;;;;12.18;3.63;;;14.60;99.90;;;;;;4976114;28;20409;-68
2022/11/10 12:51:20;;;;;;;18.60;4.07;;;14.60;99.90;;;;;;4959394;28;20046;-68
2022/11/10 12:53:47;;;;;;;17.58;3.50;;;14.60;99.90;;;;;;4975301;28;20445;-68
2022/11/10 12:56:33;;;;;;;15.65;3.88;;;14.50;99.90;;;;;;4967952;28;20051;-68
2022/11/10 12:59:35;;;;;;;10.18;2.90;;;14.50;99.90;;;;;;4972351;28;20035;-69
2022/11/10 13:02:26;;;;;;;16.20;3.47;;;14.60;99.90;;;;;;4969526;28;20035;-69
2022/11/10 13:05:14;;;;;;;18.85;3.70;;;14.60;99.90;;;;;;4962934;28;20058;-69